Terminal Aerodrome Forecast
Issued by NWS Northern Indiana

Home | Current Version | Previous Version | Text Only | Print | Product List | Glossary On
Versions: 1 2 3 4 5 6 7 8 9 10 11 12 13 14 15 16
000
FTUS43 KIWX 011700
TAFFWA
TAF
KFWA 011732Z 0118/0218 21016G24KT P6SM SCT030 BKN050
      TEMPO 0121/0124 3SM TSRA BKN020CB
     FM020000 21005KT P6SM BKN100
     FM020600 23003KT 4SM -TSRA BR BKN015CB
     FM021400 26006KT P6SM SCT020=

USA.gov is the U.S. government's official web portal to all federal, state and local government web resources and services.